Time;durP1;ratioP1;P1;durP2;ratioP2;P2;SDS_P1;SDS_P2;PMS_P1;PMS_P2;Temp;Humidity;BMP_temperature;BMP_pressure;BME280_temperature;BME280_humidity;BME280_pressure;Samples;Min_cycle;Max_cycle;Signal;HPM_P1;HPM_P2
2021/12/04 00:01:09;;;;;;;8.10;5.90;;;;;;;;;;4918289;29;20063;-74
2021/12/04 00:03:41;;;;;;;9.10;6.57;;;;;;;;;;4919232;29;20052;-75
2021/12/04 00:06:27;;;;;;;7.75;6.20;;;;;;;;;;4919580;29;20078;-74
2021/12/04 00:09:00;;;;;;;6.50;5.80;;;;;;;;;;4918184;29;20492;-75
2021/12/04 00:11:28;;;;;;;8.63;6.32;;;;;;;;;;4920381;29;20122;-77
2021/12/04 00:13:55;;;;;;;10.13;7.65;;;;;;;;;;4919139;29;20039;-76
2021/12/04 00:16:22;;;;;;;8.18;6.43;;;;;;;;;;4918690;29;20079;-74
2021/12/04 00:18:50;;;;;;;10.00;7.63;;;;;;;;;;4919260;29;20044;-77
2021/12/04 00:21:18;;;;;;;9.25;7.53;;;;;;;;;;4916377;29;20122;-76
2021/12/04 00:23:45;;;;;;;7.50;6.50;;;;;;;;;;4913159;29;20051;-73
2021/12/04 00:26:13;;;;;;;8.98;7.47;;;;;;;;;;4914605;29;20062;-73
2021/12/04 00:28:40;;;;;;;9.65;7.85;;;;;;;;;;4898999;29;20059;-76
2021/12/04 00:31:08;;;;;;;8.95;7.38;;;;;;;;;;4887511;29;20502;-74
2021/12/04 00:33:38;;;;;;;8.38;7.47;;;;;;;;;;4917380;29;20720;-73
2021/12/04 00:36:19;;;;;;;8.68;7.63;;;;;;;;;;4920210;29;20142;-74
2021/12/04 00:49:53;;;;;;;10.77;6.90;;;;;;;;;;4838619;29;20795;-75
2021/12/04 00:52:21;;;;;;;9.32;6.97;;;;;;;;;;4829942;29;20140;-74
2021/12/04 00:54:48;;;;;;;8.05;6.80;;;;;;;;;;4855444;29;20517;-73
2021/12/04 00:57:16;;;;;;;7.60;6.82;;;;;;;;;;4863341;29;20532;-73
2021/12/04 00:59:44;;;;;;;7.88;6.68;;;;;;;;;;4835198;29;20056;-76
2021/12/04 01:02:11;;;;;;;8.95;5.88;;;;;;;;;;4842970;29;20150;-74
2021/12/04 01:04:39;;;;;;;7.75;6.65;;;;;;;;;;4858661;29;20288;-75
2021/12/04 01:07:08;;;;;;;9.65;8.63;;;;;;;;;;4825818;29;20053;-73
2021/12/04 01:09:36;;;;;;;8.63;6.72;;;;;;;;;;4857874;29;20206;-73
2021/12/04 01:12:04;;;;;;;8.23;6.90;;;;;;;;;;4840298;29;20136;-74
2021/12/04 01:14:32;;;;;;;9.30;6.82;;;;;;;;;;4855459;29;20057;-75
2021/12/04 01:16:59;;;;;;;9.82;7.00;;;;;;;;;;4854317;29;20072;-75
2021/12/04 01:19:29;;;;;;;8.73;7.10;;;;;;;;;;4863039;29;20056;-74
2021/12/04 01:21:56;;;;;;;8.48;7.25;;;;;;;;;;4854029;29;20591;-75
2021/12/04 01:24:24;;;;;;;8.80;7.50;;;;;;;;;;4996428;23;20056;-77
2021/12/04 01:26:52;;;;;;;8.02;7.22;;;;;;;;;;4952079;28;20448;-79
2021/12/04 01:29:19;;;;;;;12.30;9.25;;;;;;;;;;4949627;28;20050;-78
2021/12/04 01:31:47;;;;;;;13.10;9.70;;;;;;;;;;4951234;28;20042;-78
2021/12/04 01:34:15;;;;;;;19.15;11.90;;;;;;;;;;4953805;28;20101;-78
2021/12/04 01:36:42;;;;;;;20.80;12.45;;;;;;;;;;4956612;28;20113;-77
2021/12/04 01:39:11;;;;;;;25.27;14.30;;;;;;;;;;4940180;28;20050;-77
2021/12/04 01:41:38;;;;;;;19.35;11.93;;;;;;;;;;4953817;28;20050;-78
2021/12/04 01:44:06;;;;;;;17.35;11.60;;;;;;;;;;4937590;28;20042;-79
2021/12/04 01:46:34;;;;;;;15.77;11.43;;;;;;;;;;4940882;28;20034;-78
2021/12/04 01:49:02;;;;;;;10.50;8.68;;;;;;;;;;4952820;28;20239;-78
2021/12/04 01:51:29;;;;;;;11.75;8.93;;;;;;;;;;4941058;28;20117;-78
2021/12/04 01:53:56;;;;;;;8.77;7.72;;;;;;;;;;4956193;28;20042;-79
2021/12/04 01:56:24;;;;;;;10.35;8.95;;;;;;;;;;4956166;28;20059;-77
2021/12/04 01:58:53;;;;;;;10.40;8.82;;;;;;;;;;4938563;28;20051;-78
2021/12/04 02:01:20;;;;;;;8.93;7.22;;;;;;;;;;4940821;28;20064;-78
2021/12/04 02:03:48;;;;;;;8.38;6.95;;;;;;;;;;4960929;28;20054;-79
2021/12/04 02:06:16;;;;;;;8.48;7.57;;;;;;;;;;4937058;28;20050;-78
2021/12/04 02:08:43;;;;;;;8.60;7.30;;;;;;;;;;4945139;28;20305;-79
2021/12/04 02:11:11;;;;;;;7.72;6.72;;;;;;;;;;4942396;28;20051;-79
2021/12/04 02:13:39;;;;;;;9.35;8.43;;;;;;;;;;4959821;28;20065;-78
2021/12/04 05:30:55;;;;;;;9.68;7.20;;;;;;;;;;4978028;28;20026;-78
2021/12/04 05:33:23;;;;;;;12.77;8.40;;;;;;;;;;4928652;28;20058;-79
2021/12/04 05:35:50;;;;;;;9.35;7.60;;;;;;;;;;4957102;28;20042;-77
2021/12/04 05:38:18;;;;;;;10.35;7.95;;;;;;;;;;4966956;28;20035;-79
2021/12/04 05:40:46;;;;;;;10.27;8.57;;;;;;;;;;4958317;28;20042;-79
2021/12/04 05:43:14;;;;;;;15.82;9.13;;;;;;;;;;4959612;28;20054;-78
2021/12/04 05:45:48;;;;;;;9.20;8.15;;;;;;;;;;4947636;28;20038;-79
2021/12/04 05:49:01;;;;;;;11.18;9.25;;;;;;;;;;4958476;28;20062;-80
2021/12/04 05:56:20;;;;;;;12.20;8.52;;;;;;;;;;4960653;28;20058;-79
2021/12/04 05:58:48;;;;;;;12.68;10.70;;;;;;;;;;4944207;28;20473;-78
2021/12/04 06:01:16;;;;;;;11.68;9.60;;;;;;;;;;4959430;28;20105;-79
2021/12/04 06:03:44;;;;;;;12.15;9.13;;;;;;;;;;4960028;28;20050;-79
2021/12/04 06:06:12;;;;;;;10.88;9.05;;;;;;;;;;4960026;28;20046;-78
2021/12/04 06:08:40;;;;;;;8.57;7.55;;;;;;;;;;4941358;28;20062;-79
2021/12/04 06:11:08;;;;;;;11.95;9.38;;;;;;;;;;4941804;28;20508;-79
2021/12/04 06:13:36;;;;;;;13.63;9.98;;;;;;;;;;4958220;28;20512;-79
2021/12/04 06:16:03;;;;;;;11.27;8.13;;;;;;;;;;4960871;28;20062;-79
2021/12/04 06:18:32;;;;;;;11.40;9.10;;;;;;;;;;4955917;28;20042;-78
2021/12/04 06:23:46;;;;;;;14.68;10.85;;;;;;;;;;4958428;28;20072;-78
2021/12/04 06:26:14;;;;;;;12.60;9.82;;;;;;;;;;4955684;28;20058;-79
2021/12/04 06:28:42;;;;;;;12.20;9.43;;;;;;;;;;4938795;28;20065;-78
2021/12/04 06:31:09;;;;;;;11.85;9.60;;;;;;;;;;4957489;28;20065;-77
2021/12/04 06:33:37;;;;;;;14.00;11.30;;;;;;;;;;4958859;28;20512;-79
2021/12/04 06:36:05;;;;;;;13.50;9.77;;;;;;;;;;4968256;28;20057;-79
2021/12/04 06:38:33;;;;;;;15.18;10.15;;;;;;;;;;4959194;28;20178;-79
2021/12/04 06:41:01;;;;;;;12.82;10.35;;;;;;;;;;4946631;28;20050;-79
2021/12/04 06:43:28;;;;;;;15.38;10.95;;;;;;;;;;4962216;28;20051;-81
2021/12/04 06:46:00;;;;;;;18.13;11.00;;;;;;;;;;4957549;28;20064;-79
2021/12/04 06:48:39;;;;;;;14.60;10.63;;;;;;;;;;4960477;28;20137;-78
2021/12/04 06:51:14;;;;;;;10.27;8.20;;;;;;;;;;4955162;28;20097;-77
2021/12/04 06:56:12;;;;;;;11.38;8.10;;;;;;;;;;4956904;28;20254;-79
2021/12/04 06:58:40;;;;;;;11.30;9.02;;;;;;;;;;4973487;23;20034;-81
2021/12/04 07:01:11;;;;;;;10.80;8.57;;;;;;;;;;4946610;28;20491;-82
2021/12/04 07:03:40;;;;;;;10.85;8.10;;;;;;;;;;4978880;28;20389;-82
2021/12/04 07:06:07;;;;;;;7.95;6.80;;;;;;;;;;4978466;28;20046;-82
2021/12/04 07:08:35;;;;;;;10.35;7.35;;;;;;;;;;4962371;28;20054;-82
2021/12/04 07:11:05;;;;;;;9.85;6.50;;;;;;;;;;4969866;23;20041;-79
2021/12/04 07:13:34;;;;;;;7.88;6.25;;;;;;;;;;4937917;28;20046;-79
2021/12/04 07:16:05;;;;;;;10.83;7.13;;;;;;;;;;4950367;28;20069;-78
2021/12/04 07:18:34;;;;;;;7.50;6.60;;;;;;;;;;4955586;28;20297;-80
2021/12/04 07:21:02;;;;;;;6.63;6.00;;;;;;;;;;4951887;28;20145;-80
2021/12/04 07:23:31;;;;;;;6.97;5.85;;;;;;;;;;4933986;29;20122;-80
2021/12/04 07:26:03;;;;;;;6.82;5.70;;;;;;;;;;4924589;28;20141;-79
2021/12/04 07:31:40;;;;;;;6.15;5.55;;;;;;;;;;4949044;29;20063;-75
2021/12/04 07:34:08;;;;;;;6.68;5.20;;;;;;;;;;4946634;29;20063;-76
2021/12/04 07:36:35;;;;;;;4.47;4.07;;;;;;;;;;4944942;28;20077;-74
2021/12/04 07:39:04;;;;;;;5.70;4.90;;;;;;;;;;4946486;28;20040;-75
2021/12/04 07:41:31;;;;;;;5.22;4.72;;;;;;;;;;4949699;29;20109;-74
2021/12/04 07:43:59;;;;;;;4.82;4.43;;;;;;;;;;4984384;23;20404;-76
2021/12/04 07:46:26;;;;;;;5.45;4.60;;;;;;;;;;4986844;28;20121;-76
2021/12/04 07:48:53;;;;;;;4.70;4.25;;;;;;;;;;4987477;28;20062;-75
2021/12/04 07:51:21;;;;;;;4.60;4.20;;;;;;;;;;4967401;28;20078;-75
2021/12/04 07:53:48;;;;;;;3.65;3.40;;;;;;;;;;4977673;28;20094;-75
2021/12/04 07:56:16;;;;;;;5.82;5.22;;;;;;;;;;4981083;28;20447;-75
2021/12/04 07:58:43;;;;;;;5.45;4.43;;;;;;;;;;4989029;28;20504;-75
2021/12/04 08:01:11;;;;;;;3.92;3.53;;;;;;;;;;4985681;28;20078;-75
2021/12/04 08:03:38;;;;;;;3.55;3.25;;;;;;;;;;4987115;28;20042;-75
2021/12/04 08:06:06;;;;;;;4.20;3.80;;;;;;;;;;4986371;28;20053;-75
2021/12/04 08:08:33;;;;;;;3.90;3.60;;;;;;;;;;4988480;28;20077;-75
2021/12/04 08:11:02;;;;;;;4.22;3.83;;;;;;;;;;4982899;28;20034;-76
2021/12/04 08:13:30;;;;;;;3.67;3.25;;;;;;;;;;4987913;28;20034;-75
2021/12/04 08:15:57;;;;;;;3.53;3.22;;;;;;;;;;4986410;28;20121;-77
2021/12/04 08:18:24;;;;;;;3.83;3.53;;;;;;;;;;4939144;28;20074;-75
2021/12/04 08:20:52;;;;;;;3.30;3.00;;;;;;;;;;4969541;28;20047;-75
2021/12/04 08:23:20;;;;;;;3.90;3.60;;;;;;;;;;4981513;28;20049;-75
2021/12/04 08:25:48;;;;;;;3.50;3.20;;;;;;;;;;4985867;28;20071;-75
2021/12/04 08:28:15;;;;;;;4.80;3.80;;;;;;;;;;4985635;28;20142;-76
2021/12/04 08:30:43;;;;;;;4.32;3.92;;;;;;;;;;4978317;28;20074;-76
2021/12/04 08:33:12;;;;;;;5.28;4.30;;;;;;;;;;4981139;28;20073;-76
2021/12/04 08:35:39;;;;;;;5.05;4.00;;;;;;;;;;4970306;28;20315;-75
2021/12/04 08:38:08;;;;;;;4.13;3.80;;;;;;;;;;4989766;23;20033;-74
2021/12/04 08:40:36;;;;;;;3.50;3.20;;;;;;;;;;4969750;28;20074;-75
2021/12/04 08:43:04;;;;;;;5.82;3.67;;;;;;;;;;4963790;28;21541;-74
2021/12/04 08:45:32;;;;;;;3.72;3.35;;;;;;;;;;4966237;28;20089;-75
2021/12/04 08:47:59;;;;;;;5.43;4.88;;;;;;;;;;4962405;28;20039;-74
2021/12/04 08:50:28;;;;;;;8.07;6.03;;;;;;;;;;4951673;28;20038;-76
2021/12/04 08:52:55;;;;;;;4.20;3.80;;;;;;;;;;4975858;23;20070;-77
2021/12/04 08:55:24;;;;;;;4.75;4.35;;;;;;;;;;4986646;28;20056;-77
2021/12/04 08:57:52;;;;;;;4.20;3.80;;;;;;;;;;4983128;28;20077;-78
2021/12/04 09:00:22;;;;;;;3.33;3.03;;;;;;;;;;4986040;28;20038;-80
2021/12/04 09:02:50;;;;;;;4.10;3.80;;;;;;;;;;4987049;28;20576;-77
2021/12/04 09:05:19;;;;;;;4.10;3.75;;;;;;;;;;4988717;28;20046;-76
2021/12/04 09:07:46;;;;;;;4.07;3.67;;;;;;;;;;4986536;28;20047;-78
2021/12/04 09:10:15;;;;;;;4.30;3.90;;;;;;;;;;5174597;23;20387;-75
2021/12/04 09:12:43;;;;;;;3.92;3.63;;;;;;;;;;4985504;28;20492;-75
2021/12/04 09:15:13;;;;;;;4.22;3.83;;;;;;;;;;4978181;28;20039;-74
2021/12/04 09:17:40;;;;;;;5.25;4.15;;;;;;;;;;4978959;28;20050;-76
2021/12/04 09:20:12;;;;;;;4.80;4.35;;;;;;;;;;4991091;28;20065;-75
2021/12/04 09:22:42;;;;;;;4.47;3.67;;;;;;;;;;4956348;28;20120;-74
2021/12/04 09:25:13;;;;;;;4.00;3.70;;;;;;;;;;4998896;23;20133;-80
2021/12/04 10:00:22;;;;;;;4.75;3.90;;;;;;;;;;4993416;28;20031;-80
2021/12/04 10:32:24;;;;;;;4.07;3.67;;;;;;;;;;4976418;28;20104;-78
2021/12/04 10:35:00;;;;;;;3.55;3.25;;;;;;;;;;4975475;28;20064;-79
2021/12/04 10:37:30;;;;;;;3.55;3.17;;;;;;;;;;4941523;28;20058;-79
2021/12/04 10:40:03;;;;;;;3.03;2.83;;;;;;;;;;4941547;28;20057;-78
2021/12/04 10:42:40;;;;;;;3.80;3.50;;;;;;;;;;4992350;28;20034;-78
2021/12/04 10:45:09;;;;;;;4.55;4.07;;;;;;;;;;4990952;28;20423;-79
2021/12/04 10:47:36;;;;;;;5.97;3.38;;;;;;;;;;4938468;28;20133;-79
2021/12/04 10:50:34;;;;;;;3.10;2.88;;;;;;;;;;4993035;28;20050;-79
2021/12/04 10:53:05;;;;;;;5.07;3.40;;;;;;;;;;4931518;28;20039;-79
2021/12/04 11:01:13;;;;;;;5.50;3.88;;;;;;;;;;4962797;28;20059;-75
2021/12/04 11:28:49;;;;;;;4.28;2.90;;;;;;;;;;4954838;28;20370;-79
2021/12/04 11:40:01;;;;;;;3.33;3.00;;;;;;;;;;4959221;28;20519;-79
2021/12/04 11:45:09;;;;;;;3.90;3.47;;;;;;;;;;4959390;28;20054;-79
2021/12/04 11:47:38;;;;;;;6.20;4.00;;;;;;;;;;4950181;28;20480;-77
2021/12/04 11:50:20;;;;;;;6.30;3.60;;;;;;;;;;4943225;28;20097;-79
2021/12/04 11:52:49;;;;;;;4.30;3.35;;;;;;;;;;4955212;28;20050;-79
2021/12/04 11:55:19;;;;;;;3.53;3.15;;;;;;;;;;4943289;28;20046;-80
2021/12/04 11:57:48;;;;;;;4.00;3.60;;;;;;;;;;4942670;28;20043;-80
2021/12/04 12:00:30;;;;;;;3.67;3.38;;;;;;;;;;4942484;28;20420;-80
2021/12/04 12:02:58;;;;;;;;;;;;;;;;;;4943965;28;20050;-80
2021/12/04 12:05:25;;;;;;;4.03;3.63;;;;;;;;;;4944126;28;19922;-80
2021/12/04 12:07:58;;;;;;;3.50;3.20;;;;;;;;;;4943932;28;20058;-79
2021/12/04 12:10:27;;;;;;;4.32;3.80;;;;;;;;;;4943758;28;20044;-79
2021/12/04 12:13:03;;;;;;;3.17;2.97;;;;;;;;;;4942708;28;20096;-79
2021/12/04 12:15:36;;;;;;;3.42;3.10;;;;;;;;;;4944093;28;20070;-79
2021/12/04 12:18:14;;;;;;;5.18;3.33;;;;;;;;;;4943844;28;20042;-79
2021/12/04 12:23:15;;;;;;;4.90;3.15;;;;;;;;;;4959912;28;20141;-80
2021/12/04 12:25:58;;;;;;;7.28;3.75;;;;;;;;;;4959844;28;20047;-79
2021/12/04 12:36:02;;;;;;;3.53;2.90;;;;;;;;;;4993257;28;20050;-79
2021/12/04 12:37:16;;;;;;;3.75;2.83;;;;;;;;;;4960344;28;20056;-79
2021/12/04 12:40:01;;;;;;;6.20;3.60;;;;;;;;;;4960685;28;20124;-79
2021/12/04 12:42:35;;;;;;;2.63;2.42;;;;;;;;;;4945065;28;20039;-79
2021/12/04 12:45:23;;;;;;;6.25;3.40;;;;;;;;;;4945124;28;20042;-79
2021/12/04 12:48:03;;;;;;;3.53;3.22;;;;;;;;;;4961348;28;20046;-79
2021/12/04 12:50:34;;;;;;;7.05;3.97;;;;;;;;;;4944959;28;20065;-79
2021/12/04 12:53:17;;;;;;;5.57;3.33;;;;;;;;;;4961888;28;20054;-80
2021/12/04 12:55:46;;;;;;;2.90;2.70;;;;;;;;;;4942511;28;20078;-79
2021/12/04 12:58:15;;;;;;;3.63;3.13;;;;;;;;;;4961394;28;20046;-79
2021/12/04 13:12:01;;;;;;;4.82;2.88;;;;;;;;;;4961758;28;20042;-79
2021/12/04 13:14:28;;;;;;;;;;;;;;;;;;4946650;28;20047;-78
2021/12/04 13:16:56;;;;;;;3.90;3.10;;;;;;;;;;4946849;28;19949;-78
2021/12/04 13:19:25;;;;;;;4.57;3.15;;;;;;;;;;4947464;28;20058;-79
2021/12/04 13:21:54;;;;;;;3.63;3.30;;;;;;;;;;4944211;28;20047;-79
2021/12/04 13:24:26;;;;;;;4.10;3.70;;;;;;;;;;4949043;28;20100;-80
2021/12/04 13:26:55;;;;;;;4.38;3.75;;;;;;;;;;4973077;28;20054;-79
2021/12/04 13:29:24;;;;;;;6.68;4.32;;;;;;;;;;4938477;28;20050;-79
2021/12/04 13:31:56;;;;;;;4.72;3.78;;;;;;;;;;4957291;28;20123;-79
2021/12/04 13:34:25;;;;;;;3.80;3.45;;;;;;;;;;4942505;28;20050;-79
2021/12/04 13:36:53;;;;;;;5.63;3.05;;;;;;;;;;4941684;28;20050;-79
2021/12/04 13:39:20;;;;;;;3.45;3.08;;;;;;;;;;4961774;28;20051;-79
2021/12/04 13:41:49;;;;;;;3.80;3.13;;;;;;;;;;4943001;28;20046;-79
2021/12/04 13:44:17;;;;;;;3.85;3.25;;;;;;;;;;4940660;28;20501;-79
2021/12/04 13:46:56;;;;;;;4.30;3.60;;;;;;;;;;4965818;28;20058;-80
2021/12/04 13:49:30;;;;;;;9.65;4.20;;;;;;;;;;4961151;28;20038;-79
2021/12/04 13:52:00;;;;;;;10.23;4.93;;;;;;;;;;4955038;28;20567;-79
2021/12/04 13:54:29;;;;;;;3.50;3.20;;;;;;;;;;4946394;28;20073;-79
2021/12/04 13:56:56;;;;;;;4.10;3.53;;;;;;;;;;4950342;28;20054;-80
2021/12/04 13:59:25;;;;;;;6.05;3.83;;;;;;;;;;4968633;28;20034;-79
2021/12/04 14:01:53;;;;;;;4.72;3.28;;;;;;;;;;4981883;28;20055;-79
2021/12/04 14:04:21;;;;;;;5.70;3.67;;;;;;;;;;4970623;28;20051;-78
2021/12/04 14:07:02;;;;;;;3.85;3.55;;;;;;;;;;4957853;28;20208;-79
2021/12/04 14:09:31;;;;;;;5.88;4.20;;;;;;;;;;4957612;28;20584;-80
2021/12/04 14:11:58;;;;;;;6.05;3.78;;;;;;;;;;4940295;28;20501;-80
2021/12/04 14:14:28;;;;;;;3.67;3.38;;;;;;;;;;4938183;28;20113;-80
2021/12/04 14:17:03;;;;;;;4.03;3.63;;;;;;;;;;4945415;28;20054;-79
2021/12/04 14:19:31;;;;;;;4.47;3.85;;;;;;;;;;4926512;28;20535;-80
2021/12/04 14:21:59;;;;;;;5.65;3.70;;;;;;;;;;4948520;28;20058;-80
2021/12/04 14:24:32;;;;;;;4.68;3.70;;;;;;;;;;4934199;28;20445;-78
2021/12/04 14:27:00;;;;;;;4.55;3.55;;;;;;;;;;4934288;28;20203;-78
2021/12/04 14:29:34;;;;;;;3.78;3.35;;;;;;;;;;4934149;28;20133;-80
2021/12/04 14:32:02;;;;;;;3.65;3.17;;;;;;;;;;4947072;28;20054;-80
2021/12/04 14:34:30;;;;;;;6.47;3.08;;;;;;;;;;4933126;28;20053;-79
2021/12/04 14:37:27;;;;;;;8.10;3.83;;;;;;;;;;4944165;28;20276;-79
2021/12/04 14:39:55;;;;;;;5.07;3.50;;;;;;;;;;4886519;29;20048;-81
2021/12/04 14:42:25;;;;;;;4.18;3.70;;;;;;;;;;4872178;29;20172;-80
2021/12/04 14:44:57;;;;;;;4.72;3.47;;;;;;;;;;4882023;29;20095;-79
2021/12/04 14:47:25;;;;;;;;;;;;;;;;;;4886394;29;20067;-80
2021/12/04 14:49:58;;;;;;;4.38;4.03;;;;;;;;;;4902471;29;19926;-79
2021/12/04 14:52:27;;;;;;;4.28;3.88;;;;;;;;;;4904657;29;20055;-79
2021/12/04 14:54:57;;;;;;;5.55;3.63;;;;;;;;;;4917469;29;20616;-81
2021/12/04 14:57:29;;;;;;;6.97;5.95;;;;;;;;;;4901724;29;20052;-77
2021/12/04 15:00:17;;;;;;;5.28;4.63;;;;;;;;;;4918371;29;20048;-79
2021/12/04 15:03:01;;;;;;;6.10;4.40;;;;;;;;;;4901117;29;20151;-78
2021/12/04 15:05:32;;;;;;;11.98;4.22;;;;;;;;;;4899969;29;20120;-77
2021/12/04 15:08:05;;;;;;;4.68;4.03;;;;;;;;;;4914440;29;20059;-80
2021/12/04 15:10:49;;;;;;;5.32;3.47;;;;;;;;;;4899805;29;20052;-79
2021/12/04 15:13:19;;;;;;;3.75;3.38;;;;;;;;;;4883492;29;20055;-80
2021/12/04 15:15:47;;;;;;;3.83;3.20;;;;;;;;;;4884759;28;20062;-79
2021/12/04 15:18:16;;;;;;;5.63;3.92;;;;;;;;;;4944845;28;20054;-80
2021/12/04 15:20:54;;;;;;;6.28;3.97;;;;;;;;;;4950254;28;20423;-79
2021/12/04 15:23:23;;;;;;;4.18;3.78;;;;;;;;;;4955621;28;20050;-79
2021/12/04 15:25:55;;;;;;;3.60;3.10;;;;;;;;;;4970894;23;20053;-84
2021/12/04 15:28:25;;;;;;;4.00;3.47;;;;;;;;;;4983449;28;20055;-87
2021/12/04 15:30:55;;;;;;;5.30;3.88;;;;;;;;;;4987764;28;20312;-86
2021/12/04 15:38:00;;;;;;;5.28;4.78;;;;;;;;;;4906704;29;20127;-86
2021/12/04 15:54:38;;;;;;;4.35;4.03;;;;;;;;;;4944414;29;20047;-79
2021/12/04 15:57:24;;;;;;;12.05;10.77;;;;;;;;;;4936204;28;21225;-78
2021/12/04 15:59:52;;;;;;;8.27;5.15;;;;;;;;;;4928398;29;20554;-78
2021/12/04 16:02:30;;;;;;;11.23;6.20;;;;;;;;;;4909206;29;20193;-77
2021/12/04 16:05:09;;;;;;;7.30;4.68;;;;;;;;;;4939439;29;20047;-78
2021/12/04 16:07:36;;;;;;;4.57;4.15;;;;;;;;;;4947792;29;20035;-77
2021/12/04 16:10:13;;;;;;;6.95;4.63;;;;;;;;;;4949718;28;20404;-77
2021/12/04 16:12:42;;;;;;;11.30;9.02;;;;;;;;;;4934863;28;20055;-76
2021/12/04 16:15:10;;;;;;;15.73;11.88;;;;;;;;;;4967312;28;20134;-76
2021/12/04 16:17:39;;;;;;;14.27;10.30;;;;;;;;;;4967583;28;20506;-76
2021/12/04 16:20:11;;;;;;;11.32;8.60;;;;;;;;;;4966131;28;20490;-76
2021/12/04 16:22:40;;;;;;;;;;;;;;;;;;4949305;28;20510;-76
2021/12/04 16:25:17;;;;;;;10.95;8.25;;;;;;;;;;4966825;28;19976;-76
2021/12/04 16:27:56;;;;;;;15.45;8.70;;;;;;;;;;4974617;28;20058;-78
2021/12/04 16:38:00;;;;;;;8.88;8.00;;;;;;;;;;4964124;28;19922;-77
2021/12/04 16:40:30;;;;;;;8.82;8.05;;;;;;;;;;4941318;28;20069;-79
2021/12/04 16:43:07;;;;;;;8.57;7.78;;;;;;;;;;4972417;28;20070;-77
2021/12/04 16:45:35;;;;;;;9.98;8.98;;;;;;;;;;4949369;23;20113;-75
2021/12/04 16:48:07;;;;;;;10.32;9.27;;;;;;;;;;4971080;28;20058;-75
2021/12/04 16:58:56;;;;;;;14.40;11.48;;;;;;;;;;4971801;23;20046;-77
2021/12/04 17:01:24;;;;;;;14.80;10.18;;;;;;;;;;4955426;28;20085;-77
2021/12/04 17:03:52;;;;;;;11.68;10.40;;;;;;;;;;4940360;28;20428;-76
2021/12/04 17:06:20;;;;;;;18.27;13.55;;;;;;;;;;4961629;28;20046;-77
2021/12/04 17:08:48;;;;;;;10.85;9.75;;;;;;;;;;4977352;28;20467;-77
2021/12/04 17:11:16;;;;;;;10.00;9.05;;;;;;;;;;4983251;28;20371;-77
2021/12/04 17:13:44;;;;;;;19.60;12.00;;;;;;;;;;4965410;23;20050;-75
2021/12/04 17:16:13;;;;;;;9.90;8.93;;;;;;;;;;4958377;28;20068;-75
2021/12/04 17:18:48;;;;;;;10.98;9.80;;;;;;;;;;4977204;28;20039;-75
2021/12/04 17:21:16;;;;;;;11.55;10.32;;;;;;;;;;4984316;28;20050;-75
2021/12/04 17:23:43;;;;;;;9.77;8.75;;;;;;;;;;4988939;28;20019;-75
2021/12/04 17:26:10;;;;;;;9.68;8.77;;;;;;;;;;4960409;28;20082;-75
2021/12/04 17:28:43;;;;;;;11.93;9.57;;;;;;;;;;4994377;23;20113;-77
2021/12/04 17:31:16;;;;;;;12.35;11.05;;;;;;;;;;4968020;28;20051;-75
2021/12/04 17:33:56;;;;;;;15.75;10.20;;;;;;;;;;4961236;28;20101;-75
2021/12/04 17:36:26;;;;;;;9.55;7.93;;;;;;;;;;4956809;28;20097;-76
2021/12/04 17:38:54;;;;;;;10.68;9.13;;;;;;;;;;4937900;28;20049;-74
2021/12/04 17:41:23;;;;;;;9.63;8.68;;;;;;;;;;4957892;28;20148;-77
2021/12/04 17:47:42;;;;;;;11.02;9.85;;;;;;;;;;4872046;29;20909;-80
2021/12/04 17:50:46;;;;;;;13.52;11.85;;;;;;;;;;4890884;29;20111;-77
2021/12/04 17:57:48;;;;;;;11.05;9.63;;;;;;;;;;4908353;23;20042;-82
2021/12/04 18:00:18;;;;;;;14.95;10.30;;;;;;;;;;4976466;28;20073;-86
2021/12/04 18:03:00;;;;;;;19.40;14.27;;;;;;;;;;4970305;28;20120;-84
2021/12/04 18:05:28;;;;;;;;;;;;;;;;;;4961743;28;20049;-83
2021/12/04 18:07:58;;;;;;;19.83;13.23;;;;;;;;;;4979566;28;19929;-85
2021/12/04 18:10:29;;;;;;;;;;;;;;;;;;4971968;28;20051;-83
2021/12/04 18:13:02;;;;;;;20.60;13.38;;;;;;;;;;4956186;28;19926;-84
2021/12/04 18:15:31;;;;;;;17.55;13.77;;;;;;;;;;4943298;28;20050;-86
2021/12/04 18:18:12;;;;;;;17.17;13.57;;;;;;;;;;4987111;28;20066;-85
2021/12/04 18:21:00;;;;;;;16.65;12.32;;;;;;;;;;4962274;28;20146;-85
2021/12/04 18:23:51;;;;;;;13.00;10.70;;;;;;;;;;4971303;28;20039;-85
2021/12/04 18:26:22;;;;;;;15.35;13.13;;;;;;;;;;4966227;28;20051;-86
2021/12/04 18:28:55;;;;;;;16.00;12.68;;;;;;;;;;4953412;28;20057;-85
2021/12/04 18:31:36;;;;;;;23.95;15.73;;;;;;;;;;4941833;28;20047;-86
2021/12/04 18:34:14;;;;;;;19.05;14.40;;;;;;;;;;4949494;28;20067;-86
2021/12/04 18:36:49;;;;;;;20.15;14.00;;;;;;;;;;4959673;28;20046;-87
2021/12/04 18:39:19;;;;;;;19.38;14.57;;;;;;;;;;4967288;28;20734;-88
2021/12/04 18:41:49;;;;;;;12.63;10.20;;;;;;;;;;4934013;28;20050;-85
2021/12/04 18:44:19;;;;;;;18.15;14.75;;;;;;;;;;4974632;28;20055;-86
2021/12/04 18:46:49;;;;;;;20.23;11.98;;;;;;;;;;4972864;28;20707;-87
2021/12/04 18:49:19;;;;;;;19.08;11.73;;;;;;;;;;4957009;28;20055;-87
2021/12/04 18:51:46;;;;;;;15.40;12.50;;;;;;;;;;4977282;28;20045;-87
2021/12/04 18:54:14;;;;;;;20.08;13.05;;;;;;;;;;4963998;28;20125;-87
2021/12/04 18:56:45;;;;;;;16.73;13.18;;;;;;;;;;4961340;28;20077;-86
2021/12/04 18:59:15;;;;;;;15.35;12.43;;;;;;;;;;4958157;28;20035;-87
2021/12/04 19:01:45;;;;;;;12.85;11.35;;;;;;;;;;4976157;28;20058;-86
2021/12/04 19:04:13;;;;;;;16.02;13.65;;;;;;;;;;4960007;28;20728;-86
2021/12/04 19:06:45;;;;;;;13.75;12.27;;;;;;;;;;4936258;28;20050;-86
2021/12/04 19:09:14;;;;;;;23.88;17.90;;;;;;;;;;4964333;28;20506;-86
2021/12/04 19:11:46;;;;;;;23.92;16.75;;;;;;;;;;4950902;28;20050;-85
2021/12/04 19:14:13;;;;;;;23.98;17.00;;;;;;;;;;4973831;28;20042;-85
2021/12/04 19:16:41;;;;;;;21.63;17.00;;;;;;;;;;4975765;28;20737;-85
2021/12/04 19:19:10;;;;;;;20.80;15.35;;;;;;;;;;4982820;28;20153;-85
2021/12/04 19:21:47;;;;;;;12.00;10.65;;;;;;;;;;4989558;28;20106;-87
2021/12/04 19:25:15;;;;;;;20.00;14.52;;;;;;;;;;4900502;29;20056;-89
2021/12/04 19:27:45;;;;;;;18.13;14.68;;;;;;;;;;4903866;29;20084;-88
2021/12/04 19:30:21;;;;;;;22.70;15.45;;;;;;;;;;4899340;29;20461;-85
2021/12/04 19:32:55;;;;;;;19.10;14.73;;;;;;;;;;4874227;29;20052;-86
2021/12/04 19:52:24;;;;;;;23.30;17.70;;;;;;;;;;4896084;29;20052;-85
2021/12/04 19:59:19;;;;;;;13.45;11.85;;;;;;;;;;4784905;29;20101;-85
2021/12/04 20:14:33;;;;;;;17.35;14.48;;;;;;;;;;4754280;23;20060;-76
2021/12/04 20:17:01;;;;;;;19.35;15.02;;;;;;;;;;4977229;28;20045;-76
2021/12/04 20:19:29;;;;;;;20.20;16.33;;;;;;;;;;4958574;28;20053;-76
2021/12/04 20:21:59;;;;;;;16.70;14.40;;;;;;;;;;4972529;28;20047;-76
2021/12/04 20:24:33;;;;;;;18.23;14.77;;;;;;;;;;4988795;23;20054;-78
2021/12/04 20:27:03;;;;;;;15.48;13.45;;;;;;;;;;4961265;28;21024;-76
2021/12/04 20:30:00;;;;;;;19.25;15.10;;;;;;;;;;4958166;28;20514;-76
2021/12/04 20:32:46;;;;;;;16.80;13.18;;;;;;;;;;4943217;28;20039;-76
2021/12/04 20:52:11;;;;;;;23.98;20.10;;;;;;;;;;4942412;28;20522;-76
2021/12/04 21:09:02;;;;;;;17.08;14.18;;;;;;;;;;4914017;29;20079;-76
2021/12/04 21:49:53;;;;;;;12.35;10.10;;;;;;;;;;4956720;28;21105;-75
2021/12/04 21:52:20;;;;;;;16.98;11.75;;;;;;;;;;4953459;28;20043;-76
2021/12/04 21:54:48;;;;;;;15.57;12.73;;;;;;;;;;4942333;28;20050;-77
2021/12/04 22:11:00;;;;;;;12.02;10.10;;;;;;;;;;4935779;28;20035;-76
2021/12/04 22:13:38;;;;;;;;;;;;;;;;;;4933354;29;20404;-76
2021/12/04 23:00:39;;;;;;;23.92;14.40;;;;;;;;;;4893480;29;20082;-75
2021/12/04 23:03:12;;;;;;;13.00;9.93;;;;;;;;;;4934256;23;20058;-76
2021/12/04 23:11:21;;;;;;;14.88;10.98;;;;;;;;;;4962582;28;20382;-76
2021/12/04 23:13:49;;;;;;;24.45;13.75;;;;;;;;;;4985640;28;20070;-76
2021/12/04 23:16:31;;;;;;;15.35;11.35;;;;;;;;;;4991895;23;20512;-75
2021/12/04 23:19:45;;;;;;;24.08;14.57;;;;;;;;;;4947205;28;20050;-75
2021/12/04 23:36:02;;;;;;;28.10;14.48;;;;;;;;;;5007948;23;20129;-76
2021/12/04 23:41:38;;;;;;;25.63;14.50;;;;;;;;;;4992064;28;20120;-76
2021/12/04 23:44:02;;;;;;;28.30;14.98;;;;;;;;;;4978169;28;20069;-76
